CYLJ

Meadow Lake Airport

Meadow Lake, Saskatchewan, Canada
METAR CYLJ 160000Z 28019G27KT 15SM DRSN FEW030 M03/M09 A2970 RMK CU1 CU TR LAST STFD OB/NXT161200UTC SLP082
Observed Flight Rules
Dec-16 @ 00:00 UTC (2 hours ago) Visual Flight Rules
Wind Visibility Clouds Conditions
280° at 19 knots
 Gusting to 27 knots
15 miles
  • Few at 3,000' AGL
  • Low drifting
  • Snow
Temperatures Readings
Current -3°C / 27°F
Dewpoint -9°C / 16°F
Humidity 64%
Altimeter 29.7" Hg
Pressure 1008.2 hPa
Elevation 480
METAR CYLJ 160000Z 28019G27KT 15SM DRSN FEW030 M03/M09 A2970 RMK CU1 CU TR LAST STFD OB/NXT161200UTC SLP082
Observed Flight Rules
Dec-16 @ 00:00 UTC
(2 hours ago)
VFR
Wind Visibility
280° at 19 knots
 Gusting to 27 knots
15 miles
Clouds
  • Few at 3,000' AGL
Conditions
  • Low drifting
  • Snow
Temperature Dewpoint
-3°C / 27°F -9°C / 16°F
Humidity Altimeter Pressure
64% 29.7" Hg 1008.2 hPa